Time;durP1;ratioP1;P1;durP2;ratioP2;P2;SDS_P1;SDS_P2;PMS_P1;PMS_P2;Temp;Humidity;BMP_temperature;BMP_pressure;BME280_temperature;BME280_humidity;BME280_pressure;Samples;Min_cycle;Max_cycle;Signal;HPM_P1;HPM_P2
2022/07/23 00:01:22;;;;;;;10.32;4.95;;;;;;;;;;5094113;28;20043;-70
2022/07/23 00:03:48;;;;;;;7.40;5.38;;;;;;;;;;5092615;28;20104;-70
2022/07/23 00:06:14;;;;;;;9.60;4.28;;;;;;;;;;5067587;28;20039;-70
2022/07/23 00:08:41;;;;;;;6.55;4.50;;;;;;;;;;5087761;28;20044;-70
2022/07/23 00:11:07;;;;;;;9.00;4.80;;;;;;;;;;5086843;28;20044;-70
2022/07/23 00:13:33;;;;;;;7.53;3.80;;;;;;;;;;5093950;27;20051;-70
2022/07/23 00:15:59;;;;;;;5.88;4.15;;;;;;;;;;5089673;28;20044;-70
2022/07/23 00:18:25;;;;;;;8.88;4.82;;;;;;;;;;5089946;28;20531;-70
2022/07/23 00:20:52;;;;;;;12.82;5.13;;;;;;;;;;5091520;28;20047;-70
2022/07/23 00:23:18;;;;;;;8.38;4.57;;;;;;;;;;5093990;28;20074;-70
2022/07/23 00:25:47;;;;;;;7.18;4.68;;;;;;;;;;5102599;27;20048;-70
2022/07/23 00:28:13;;;;;;;6.25;4.82;;;;;;;;;;5091861;28;20451;-72
2022/07/23 00:30:39;;;;;;;6.25;4.60;;;;;;;;;;5089403;28;20035;-70
2022/07/23 00:33:07;;;;;;;7.55;4.60;;;;;;;;;;5095440;28;20115;-70
2022/07/23 00:35:34;;;;;;;9.07;4.32;;;;;;;;;;5091220;28;20500;-70
2022/07/23 00:38:00;;;;;;;7.40;4.70;;;;;;;;;;5092171;28;20040;-70
2022/07/23 00:40:27;;;;;;;6.57;4.13;;;;;;;;;;5091576;28;20047;-70
2022/07/23 00:42:54;;;;;;;6.38;5.00;;;;;;;;;;5090462;28;20074;-70
2022/07/23 00:45:20;;;;;;;6.45;4.10;;;;;;;;;;5094888;28;20040;-70
2022/07/23 00:47:47;;;;;;;6.80;4.82;;;;;;;;;;5112248;27;20371;-70
2022/07/23 00:50:13;;;;;;;7.43;5.43;;;;;;;;;;5088642;28;20060;-70
2022/07/23 00:52:40;;;;;;;12.82;4.80;;;;;;;;;;5087843;28;20071;-70
2022/07/23 00:55:08;;;;;;;6.75;4.53;;;;;;;;;;5094962;28;20331;-70
2022/07/23 00:57:34;;;;;;;6.43;4.43;;;;;;;;;;5069321;28;20089;-70
2022/07/23 01:00:00;;;;;;;7.22;4.65;;;;;;;;;;5091547;28;20042;-70
2022/07/23 01:02:27;;;;;;;7.00;4.68;;;;;;;;;;5103951;27;20060;-70
2022/07/23 01:04:54;;;;;;;7.97;5.28;;;;;;;;;;5106117;27;20117;-70
2022/07/23 01:07:20;;;;;;;7.88;4.68;;;;;;;;;;5109294;27;20055;-70
2022/07/23 01:09:46;;;;;;;6.68;4.35;;;;;;;;;;5089329;28;20055;-70
2022/07/23 01:12:13;;;;;;;8.00;4.50;;;;;;;;;;5089882;28;20443;-70
2022/07/23 01:14:39;;;;;;;8.35;4.63;;;;;;;;;;5093437;28;20039;-70
2022/07/23 01:17:05;;;;;;;6.65;4.63;;;;;;;;;;5089314;28;20040;-70
2022/07/23 01:19:31;;;;;;;9.57;5.00;;;;;;;;;;5096606;28;20425;-70
2022/07/23 01:22:00;;;;;;;8.88;5.15;;;;;;;;;;5093611;27;20551;-70
2022/07/23 01:24:26;;;;;;;7.60;5.22;;;;;;;;;;5088216;28;20109;-70
2022/07/23 01:26:52;;;;;;;10.60;5.80;;;;;;;;;;5097603;27;20069;-70
2022/07/23 01:29:19;;;;;;;9.63;6.10;;;;;;;;;;5091825;28;20383;-70
2022/07/23 01:31:46;;;;;;;9.60;5.18;;;;;;;;;;5094042;28;20046;-70
2022/07/23 01:34:12;;;;;;;6.45;4.80;;;;;;;;;;5072645;28;20124;-69
2022/07/23 01:36:38;;;;;;;10.88;5.22;;;;;;;;;;5086308;28;20173;-70
2022/07/23 01:39:05;;;;;;;5.70;4.22;;;;;;;;;;5097885;28;20044;-70
2022/07/23 01:41:31;;;;;;;11.38;5.03;;;;;;;;;;5089117;28;20481;-70
2022/07/23 01:43:58;;;;;;;9.20;5.60;;;;;;;;;;5090341;28;20481;-70
2022/07/23 01:46:24;;;;;;;8.20;5.25;;;;;;;;;;5063897;28;20045;-70
2022/07/23 01:48:50;;;;;;;10.52;5.85;;;;;;;;;;5090993;28;20139;-70
2022/07/23 01:51:16;;;;;;;7.13;4.88;;;;;;;;;;5088957;28;20166;-70
2022/07/23 01:53:43;;;;;;;10.27;4.82;;;;;;;;;;5088923;28;20236;-70
2022/07/23 01:56:09;;;;;;;8.75;5.22;;;;;;;;;;5091640;28;20032;-70
2022/07/23 01:58:36;;;;;;;9.25;5.68;;;;;;;;;;5094483;28;20190;-70
2022/07/23 02:01:03;;;;;;;8.40;5.45;;;;;;;;;;5088966;28;20078;-70
2022/07/23 02:03:29;;;;;;;7.78;4.78;;;;;;;;;;5095514;28;20094;-70
2022/07/23 02:05:55;;;;;;;9.32;6.20;;;;;;;;;;5093040;28;20054;-70
2022/07/23 02:08:21;;;;;;;7.80;5.53;;;;;;;;;;5095682;28;20040;-70
2022/07/23 02:10:48;;;;;;;5.72;4.43;;;;;;;;;;5095452;28;20044;-70
2022/07/23 02:13:14;;;;;;;6.32;5.13;;;;;;;;;;5099769;28;20136;-70
2022/07/23 02:15:41;;;;;;;12.60;5.88;;;;;;;;;;5098273;28;20040;-70
2022/07/23 02:18:08;;;;;;;7.65;5.28;;;;;;;;;;5104102;28;20120;-70
2022/07/23 02:20:34;;;;;;;8.70;5.28;;;;;;;;;;5096337;28;20036;-70
2022/07/23 02:23:00;;;;;;;7.03;4.68;;;;;;;;;;5093723;28;20485;-70
2022/07/23 02:25:26;;;;;;;9.65;5.15;;;;;;;;;;5092324;28;20524;-70
2022/07/23 02:27:52;;;;;;;7.25;4.78;;;;;;;;;;5091533;28;20119;-70
2022/07/23 02:30:18;;;;;;;7.20;5.00;;;;;;;;;;5097394;28;20083;-70
2022/07/23 02:32:44;;;;;;;7.00;5.00;;;;;;;;;;5095148;28;20054;-70
2022/07/23 02:35:11;;;;;;;9.63;5.25;;;;;;;;;;5094040;28;20073;-70
2022/07/23 02:37:38;;;;;;;7.72;5.60;;;;;;;;;;5096035;28;20535;-70
2022/07/23 02:40:04;;;;;;;7.38;4.78;;;;;;;;;;5096350;28;20039;-70
2022/07/23 02:42:31;;;;;;;8.00;5.15;;;;;;;;;;5091317;28;20047;-70
2022/07/23 02:44:57;;;;;;;8.07;4.70;;;;;;;;;;5105703;27;20099;-70
2022/07/23 02:47:23;;;;;;;7.55;4.75;;;;;;;;;;5086538;28;20576;-70
2022/07/23 02:49:49;;;;;;;8.23;4.35;;;;;;;;;;5090464;28;20037;-70
2022/07/23 02:52:15;;;;;;;7.10;4.68;;;;;;;;;;5089027;28;20044;-70
2022/07/23 02:54:41;;;;;;;7.35;4.78;;;;;;;;;;5092378;28;20520;-70
2022/07/23 02:57:07;;;;;;;8.75;5.38;;;;;;;;;;5084699;28;20068;-70
2022/07/23 02:59:33;;;;;;;8.68;4.93;;;;;;;;;;5080656;28;20453;-70
2022/07/23 03:02:00;;;;;;;8.27;4.93;;;;;;;;;;5061430;28;20040;-70
2022/07/23 03:04:26;;;;;;;8.60;5.03;;;;;;;;;;5091708;28;20040;-70
2022/07/23 03:06:52;;;;;;;6.10;4.40;;;;;;;;;;5092060;28;20048;-70
2022/07/23 03:09:18;;;;;;;8.27;4.78;;;;;;;;;;5091002;28;20044;-70
2022/07/23 03:11:44;;;;;;;7.20;4.10;;;;;;;;;;5099716;28;20271;-69
2022/07/23 03:14:13;;;;;;;7.28;4.15;;;;;;;;;;5095876;28;20040;-70
2022/07/23 03:16:39;;;;;;;6.05;4.53;;;;;;;;;;5111765;27;20032;-70
2022/07/23 03:19:05;;;;;;;9.30;5.28;;;;;;;;;;5091488;28;20036;-70
2022/07/23 03:21:31;;;;;;;7.78;4.38;;;;;;;;;;5092417;28;20043;-70
2022/07/23 03:23:57;;;;;;;8.55;5.43;;;;;;;;;;5095336;28;20170;-69
2022/07/23 03:26:25;;;;;;;7.13;4.20;;;;;;;;;;5095661;28;20476;-70
2022/07/23 03:28:52;;;;;;;8.10;4.85;;;;;;;;;;5096055;28;20036;-70
2022/07/23 03:31:18;;;;;;;7.18;4.40;;;;;;;;;;5088822;28;20043;-70
2022/07/23 03:33:44;;;;;;;8.73;4.88;;;;;;;;;;5093713;27;20048;-70
2022/07/23 03:36:10;;;;;;;9.05;6.38;;;;;;;;;;5109772;27;20048;-70
2022/07/23 03:38:36;;;;;;;8.20;4.47;;;;;;;;;;5108351;27;20109;-70
2022/07/23 03:41:03;;;;;;;6.35;4.65;;;;;;;;;;5096879;28;20077;-70
2022/07/23 03:43:29;;;;;;;7.82;5.03;;;;;;;;;;5089872;28;20036;-70
2022/07/23 03:45:55;;;;;;;6.72;4.30;;;;;;;;;;5110346;27;20463;-70
2022/07/23 03:48:21;;;;;;;7.25;4.45;;;;;;;;;;5108781;27;20439;-69
2022/07/23 03:50:47;;;;;;;5.72;4.28;;;;;;;;;;5075272;28;20401;-69
2022/07/23 03:53:13;;;;;;;6.40;4.80;;;;;;;;;;5078087;28;20372;-70
2022/07/23 03:55:39;;;;;;;6.07;4.60;;;;;;;;;;5100626;27;20063;-69
2022/07/23 03:58:06;;;;;;;6.15;4.93;;;;;;;;;;5084809;28;20040;-70
2022/07/23 04:00:32;;;;;;;8.60;4.82;;;;;;;;;;5073104;28;20447;-70
2022/07/23 04:02:58;;;;;;;8.23;4.22;;;;;;;;;;5095004;28;20054;-70
2022/07/23 04:05:24;;;;;;;7.47;4.35;;;;;;;;;;5088136;28;20051;-70
2022/07/23 04:07:50;;;;;;;6.45;4.20;;;;;;;;;;5093294;28;20032;-70
2022/07/23 04:10:16;;;;;;;8.88;5.60;;;;;;;;;;5106202;27;20039;-70
2022/07/23 04:12:43;;;;;;;9.27;4.35;;;;;;;;;;5095659;28;20044;-70
2022/07/23 04:15:11;;;;;;;8.65;5.22;;;;;;;;;;5075802;28;20433;-70
2022/07/23 04:17:38;;;;;;;10.15;4.65;;;;;;;;;;5091133;28;20036;-70
2022/07/23 04:20:06;;;;;;;9.88;5.05;;;;;;;;;;5091792;28;20119;-70
2022/07/23 04:22:32;;;;;;;7.18;4.72;;;;;;;;;;5092782;28;20050;-70
2022/07/23 04:24:58;;;;;;;7.82;4.25;;;;;;;;;;5087914;28;20159;-70
2022/07/23 04:27:24;;;;;;;7.53;4.10;;;;;;;;;;5089600;28;20071;-70
2022/07/23 04:29:50;;;;;;;11.02;4.95;;;;;;;;;;5092066;28;20077;-70
2022/07/23 04:32:16;;;;;;;8.75;4.15;;;;;;;;;;5096753;28;20543;-70
2022/07/23 04:34:42;;;;;;;7.85;3.83;;;;;;;;;;5091965;28;20044;-70
2022/07/23 04:37:09;;;;;;;5.90;4.30;;;;;;;;;;5096142;27;20501;-70
2022/07/23 04:39:35;;;;;;;9.40;4.63;;;;;;;;;;5078092;28;20498;-70
2022/07/23 04:42:01;;;;;;;9.07;4.22;;;;;;;;;;5092652;28;20051;-70
2022/07/23 04:44:27;;;;;;;7.93;5.03;;;;;;;;;;5088214;28;20047;-70
2022/07/23 04:46:54;;;;;;;5.30;3.72;;;;;;;;;;5085088;28;20505;-70
2022/07/23 04:49:20;;;;;;;9.10;4.38;;;;;;;;;;5077194;28;20052;-70
2022/07/23 04:51:46;;;;;;;8.85;4.35;;;;;;;;;;5066435;28;20115;-70
2022/07/23 04:54:12;;;;;;;5.07;3.60;;;;;;;;;;5091887;28;20062;-70
2022/07/23 04:56:38;;;;;;;6.95;3.90;;;;;;;;;;5070141;28;20086;-70
2022/07/23 04:59:04;;;;;;;8.10;3.53;;;;;;;;;;5097318;27;20052;-70
2022/07/23 05:01:31;;;;;;;6.65;4.88;;;;;;;;;;5094553;28;20282;-70
2022/07/23 05:03:57;;;;;;;6.15;3.70;;;;;;;;;;5092845;28;20035;-70
2022/07/23 05:06:23;;;;;;;7.25;4.40;;;;;;;;;;5100857;27;20462;-71
2022/07/23 05:08:50;;;;;;;8.10;5.43;;;;;;;;;;5099457;28;20086;-70
2022/07/23 05:11:16;;;;;;;7.10;3.80;;;;;;;;;;5089444;28;20036;-70
2022/07/23 05:13:42;;;;;;;5.70;3.33;;;;;;;;;;5092399;28;20032;-70
2022/07/23 05:16:08;;;;;;;8.00;4.20;;;;;;;;;;5070729;28;20040;-70
2022/07/23 05:18:35;;;;;;;7.03;4.03;;;;;;;;;;5108073;27;20047;-70
2022/07/23 05:21:01;;;;;;;7.43;3.97;;;;;;;;;;5093179;28;20040;-70
2022/07/23 05:23:27;;;;;;;5.28;3.83;;;;;;;;;;5092360;28;20040;-70
2022/07/23 05:25:53;;;;;;;8.82;4.82;;;;;;;;;;5092518;28;20043;-70
2022/07/23 05:28:19;;;;;;;5.20;3.53;;;;;;;;;;5091890;28;20036;-70
2022/07/23 05:30:45;;;;;;;9.40;3.85;;;;;;;;;;5107032;27;20503;-70
2022/07/23 05:33:11;;;;;;;5.65;3.92;;;;;;;;;;5090885;28;20032;-70
2022/07/23 05:35:38;;;;;;;7.22;4.10;;;;;;;;;;5092973;27;20249;-70
2022/07/23 05:38:04;;;;;;;7.95;4.32;;;;;;;;;;5086288;28;20141;-70
2022/07/23 05:40:30;;;;;;;4.40;3.28;;;;;;;;;;5083922;28;20136;-70
2022/07/23 05:42:56;;;;;;;10.68;4.25;;;;;;;;;;5087160;28;20467;-70
2022/07/23 05:45:22;;;;;;;7.18;4.72;;;;;;;;;;5085423;28;20036;-70
2022/07/23 05:47:49;;;;;;;8.10;4.32;;;;;;;;;;5101757;28;20060;-70
2022/07/23 05:50:16;;;;;;;6.68;3.72;;;;;;;;;;5081480;28;20041;-70
2022/07/23 05:52:42;;;;;;;9.63;3.95;;;;;;;;;;5096202;28;20040;-70
2022/07/23 05:55:09;;;;;;;6.38;2.90;;;;;;;;;;5074686;28;20039;-70
2022/07/23 05:57:35;;;;;;;9.52;3.25;;;;;;;;;;5083631;28;20044;-70
2022/07/23 06:00:02;;;;;;;6.07;2.75;;;;;;;;;;5089916;28;20523;-70
2022/07/23 06:02:29;;;;;;;5.82;3.25;;;;;;;;;;5091251;28;20044;-70
2022/07/23 06:04:55;;;;;;;4.45;2.72;;;;;;;;;;5093851;28;20081;-70
2022/07/23 06:07:21;;;;;;;10.25;2.67;;;;;;;;;;5084948;28;20371;-70
2022/07/23 06:09:48;;;;;;;4.00;2.17;;;;;;;;;;5101604;28;20558;-70
2022/07/23 06:12:15;;;;;;;4.38;2.58;;;;;;;;;;5088282;28;20510;-70
2022/07/23 06:14:42;;;;;;;4.50;1.98;;;;;;;;;;5107283;27;20048;-70
2022/07/23 06:17:09;;;;;;;5.90;2.03;;;;;;;;;;5091957;28;20044;-70
2022/07/23 06:19:35;;;;;;;2.38;1.30;;;;;;;;;;5070357;28;20135;-70
2022/07/23 06:22:01;;;;;;;2.75;1.48;;;;;;;;;;5107436;27;20044;-70
2022/07/23 06:24:27;;;;;;;1.70;1.20;;;;;;;;;;5084809;28;20040;-70
2022/07/23 06:26:53;;;;;;;2.00;1.00;;;;;;;;;;5092002;28;20105;-71
2022/07/23 06:29:19;;;;;;;2.65;1.20;;;;;;;;;;5094915;28;20468;-71
2022/07/23 06:31:46;;;;;;;2.42;0.98;;;;;;;;;;5089297;28;20068;-70
2022/07/23 06:34:12;;;;;;;2.78;1.13;;;;;;;;;;5092797;28;20092;-71
2022/07/23 06:36:38;;;;;;;3.95;0.98;;;;;;;;;;5083311;28;20398;-70
2022/07/23 06:39:04;;;;;;;2.40;1.10;;;;;;;;;;5093613;28;20074;-71
2022/07/23 06:41:30;;;;;;;2.38;1.10;;;;;;;;;;5086636;28;20135;-71
2022/07/23 06:43:56;;;;;;;1.80;1.05;;;;;;;;;;5088554;28;20425;-71
2022/07/23 06:46:22;;;;;;;1.92;1.00;;;;;;;;;;5087751;28;20048;-71
2022/07/23 06:48:49;;;;;;;2.45;1.50;;;;;;;;;;5068414;28;20498;-71
2022/07/23 06:51:15;;;;;;;1.70;0.80;;;;;;;;;;5092007;28;20112;-71
2022/07/23 06:53:41;;;;;;;2.33;1.10;;;;;;;;;;5093072;28;20165;-71
2022/07/23 06:56:07;;;;;;;2.20;1.05;;;;;;;;;;5090289;28;20044;-70
2022/07/23 06:58:33;;;;;;;1.58;0.77;;;;;;;;;;5089527;28;20123;-71
2022/07/23 07:00:59;;;;;;;2.10;1.13;;;;;;;;;;5110818;27;20145;-71
2022/07/23 07:03:26;;;;;;;1.75;0.70;;;;;;;;;;5106719;27;20044;-71
2022/07/23 07:05:53;;;;;;;1.98;0.82;;;;;;;;;;5094155;28;20035;-68
2022/07/23 07:08:19;;;;;;;3.80;0.90;;;;;;;;;;5074170;28;20573;-68
2022/07/23 07:10:45;;;;;;;0.88;0.80;;;;;;;;;;5086761;28;20389;-68
2022/07/23 07:13:11;;;;;;;1.00;0.90;;;;;;;;;;5109308;27;20065;-68
2022/07/23 07:15:37;;;;;;;2.30;0.90;;;;;;;;;;5090551;28;20046;-68
2022/07/23 07:18:03;;;;;;;3.13;0.77;;;;;;;;;;5077222;28;20052;-68
2022/07/23 07:20:30;;;;;;;1.13;0.80;;;;;;;;;;5091527;28;20040;-68
2022/07/23 07:22:56;;;;;;;2.33;0.70;;;;;;;;;;5107198;27;20047;-68
2022/07/23 07:25:22;;;;;;;3.17;1.10;;;;;;;;;;5084831;28;20634;-68
2022/07/23 07:27:49;;;;;;;1.92;0.88;;;;;;;;;;5088714;28;20055;-68
2022/07/23 07:30:15;;;;;;;1.83;0.70;;;;;;;;;;5088194;28;20168;-68
2022/07/23 07:32:42;;;;;;;1.45;1.02;;;;;;;;;;5107169;27;20117;-70
2022/07/23 07:35:08;;;;;;;2.05;1.00;;;;;;;;;;5086411;28;20070;-70
2022/07/23 07:37:34;;;;;;;3.35;0.77;;;;;;;;;;5102885;27;20401;-70
2022/07/23 07:40:01;;;;;;;1.33;0.70;;;;;;;;;;5089988;28;20083;-70
2022/07/23 07:42:27;;;;;;;1.45;0.80;;;;;;;;;;5088593;28;20047;-70
2022/07/23 07:44:53;;;;;;;1.02;0.80;;;;;;;;;;5092946;28;20092;-70
2022/07/23 07:47:19;;;;;;;2.15;1.30;;;;;;;;;;5090546;28;20500;-70
2022/07/23 07:49:45;;;;;;;1.35;0.82;;;;;;;;;;5086977;28;20117;-71
2022/07/23 07:52:11;;;;;;;0.65;0.47;;;;;;;;;;5106209;27;20048;-70
2022/07/23 07:54:37;;;;;;;2.20;0.95;;;;;;;;;;5107513;27;20083;-70
2022/07/23 07:57:04;;;;;;;3.08;0.80;;;;;;;;;;5105477;27;20044;-68
2022/07/23 07:59:30;;;;;;;1.35;0.82;;;;;;;;;;5089143;28;20035;-68
2022/07/23 08:01:56;;;;;;;1.45;0.85;;;;;;;;;;5088986;28;20036;-68
2022/07/23 08:04:24;;;;;;;1.35;0.85;;;;;;;;;;5089029;28;20044;-68
2022/07/23 08:06:50;;;;;;;1.52;0.75;;;;;;;;;;5088410;28;20042;-68
2022/07/23 08:09:16;;;;;;;5.68;1.35;;;;;;;;;;5085939;28;20516;-69
2022/07/23 08:11:42;;;;;;;0.77;0.77;;;;;;;;;;5087205;28;20051;-68
2022/07/23 08:14:10;;;;;;;1.65;0.90;;;;;;;;;;5083667;28;20031;-68
2022/07/23 08:16:37;;;;;;;1.52;0.93;;;;;;;;;;5070750;28;20048;-68
2022/07/23 08:19:03;;;;;;;2.80;0.93;;;;;;;;;;5086318;28;20079;-68
2022/07/23 08:21:29;;;;;;;1.42;1.00;;;;;;;;;;5084627;28;20115;-68
2022/07/23 08:23:55;;;;;;;1.30;0.85;;;;;;;;;;5071558;28;20040;-69
2022/07/23 08:26:21;;;;;;;1.48;1.05;;;;;;;;;;5103606;27;20043;-70
2022/07/23 08:28:48;;;;;;;1.50;0.88;;;;;;;;;;5075689;28;20051;-71
2022/07/23 08:31:16;;;;;;;1.85;0.88;;;;;;;;;;5087349;28;20490;-71
2022/07/23 08:33:42;;;;;;;2.13;1.15;;;;;;;;;;5086291;28;20032;-71
2022/07/23 08:36:08;;;;;;;3.30;1.00;;;;;;;;;;5088407;28;20052;-71
2022/07/23 08:38:35;;;;;;;1.48;0.98;;;;;;;;;;5088417;28;20036;-70
2022/07/23 08:41:02;;;;;;;2.72;1.10;;;;;;;;;;5087594;28;20044;-71
2022/07/23 08:43:32;;;;;;;1.27;0.90;;;;;;;;;;5086198;28;20032;-71
2022/07/23 08:46:00;;;;;;;1.63;1.02;;;;;;;;;;5086618;28;20035;-71
2022/07/23 08:48:28;;;;;;;2.20;1.00;;;;;;;;;;5082895;28;20178;-71
2022/07/23 08:50:55;;;;;;;2.10;1.10;;;;;;;;;;5100873;27;20123;-71
2022/07/23 08:53:22;;;;;;;4.10;1.27;;;;;;;;;;5102715;27;20040;-71
2022/07/23 08:55:56;;;;;;;1.83;1.00;;;;;;;;;;5089242;28;20417;-70
2022/07/23 08:58:23;;;;;;;1.70;1.00;;;;;;;;;;5093044;28;20115;-70
2022/07/23 09:00:49;;;;;;;1.60;0.85;;;;;;;;;;5091899;28;20076;-70
2022/07/23 09:03:16;;;;;;;1.83;0.90;;;;;;;;;;5088819;28;20529;-70
2022/07/23 09:05:42;;;;;;;1.73;0.98;;;;;;;;;;5091469;28;20370;-71
2022/07/23 09:08:13;;;;;;;1.60;0.90;;;;;;;;;;5089167;28;20032;-71
2022/07/23 09:10:56;;;;;;;1.20;0.95;;;;;;;;;;5092799;28;20605;-71
2022/07/23 09:13:28;;;;;;;2.80;1.25;;;;;;;;;;5094312;28;20489;-71
2022/07/23 09:15:55;;;;;;;2.55;1.20;;;;;;;;;;5087624;28;20126;-71
2022/07/23 09:18:29;;;;;;;1.38;1.27;;;;;;;;;;5085478;28;20040;-71
2022/07/23 09:21:09;;;;;;;2.63;0.80;;;;;;;;;;5078381;28;20044;-71
2022/07/23 09:23:38;;;;;;;3.67;1.15;;;;;;;;;;5084417;28;20117;-71
2022/07/23 09:26:17;;;;;;;1.35;0.90;;;;;;;;;;5085243;28;20069;-71
2022/07/23 09:28:54;;;;;;;1.05;0.95;;;;;;;;;;5083330;28;20037;-71
2022/07/23 09:31:20;;;;;;;1.00;0.77;;;;;;;;;;5077219;28;20039;-71
2022/07/23 09:33:47;;;;;;;4.47;1.00;;;;;;;;;;5097099;28;20040;-70
2022/07/23 09:36:13;;;;;;;2.55;0.93;;;;;;;;;;5082685;28;20353;-71
2022/07/23 09:38:51;;;;;;;2.33;1.20;;;;;;;;;;5095174;27;20633;-70
2022/07/23 09:41:18;;;;;;;1.63;1.05;;;;;;;;;;5063934;28;20043;-70
2022/07/23 09:43:44;;;;;;;5.07;1.95;;;;;;;;;;5084863;28;20490;-71
2022/07/23 09:46:24;;;;;;;1.73;0.85;;;;;;;;;;5087268;28;20044;-71
2022/07/23 09:48:51;;;;;;;1.90;1.00;;;;;;;;;;5102216;28;20064;-70
2022/07/23 09:51:36;;;;;;;3.58;1.48;;;;;;;;;;5083584;28;20425;-71
2022/07/23 09:54:02;;;;;;;2.97;1.30;;;;;;;;;;5081779;28;20140;-70
2022/07/23 09:56:29;;;;;;;4.97;1.67;;;;;;;;;;5087467;28;20536;-71
2022/07/23 09:59:11;;;;;;;1.85;1.27;;;;;;;;;;5068239;28;20073;-71
2022/07/23 10:01:38;;;;;;;5.20;1.60;;;;;;;;;;5082203;28;20062;-71
2022/07/23 10:04:04;;;;;;;2.63;1.27;;;;;;;;;;5085648;28;20047;-71
2022/07/23 10:06:31;;;;;;;1.92;1.38;;;;;;;;;;5087560;28;20807;-71
2022/07/23 10:08:59;;;;;;;2.08;1.40;;;;;;;;;;5084200;28;20052;-71
2022/07/23 10:11:25;;;;;;;4.07;1.52;;;;;;;;;;5081085;28;20126;-69
2022/07/23 10:13:59;;;;;;;7.65;1.50;;;;;;;;;;5077829;28;20501;-70
2022/07/23 10:16:25;;;;;;;1.33;0.93;;;;;;;;;;5083139;28;20078;-69
2022/07/23 10:18:52;;;;;;;1.73;1.23;;;;;;;;;;5077386;28;20051;-69
2022/07/23 10:21:41;;;;;;;3.08;1.25;;;;;;;;;;5080116;28;20422;-70
2022/07/23 10:24:26;;;;;;;2.40;1.20;;;;;;;;;;5071352;28;20083;-69
2022/07/23 10:26:59;;;;;;;2.22;1.25;;;;;;;;;;5082566;28;20570;-69
2022/07/23 10:29:28;;;;;;;2.50;1.40;;;;;;;;;;5082922;28;20148;-69
2022/07/23 10:32:04;;;;;;;2.45;1.42;;;;;;;;;;5086190;28;20032;-69
2022/07/23 10:34:48;;;;;;;2.20;1.52;;;;;;;;;;5083454;28;20063;-69
2022/07/23 10:37:26;;;;;;;2.35;1.20;;;;;;;;;;5096772;28;20044;-69
2022/07/23 10:40:11;;;;;;;2.13;1.48;;;;;;;;;;5091037;28;20040;-69
2022/07/23 10:42:38;;;;;;;4.57;1.75;;;;;;;;;;5083000;28;20481;-69
2022/07/23 10:45:25;;;;;;;2.13;1.25;;;;;;;;;;5084893;28;20119;-69
2022/07/23 10:47:51;;;;;;;3.88;1.27;;;;;;;;;;5087779;28;20057;-70
2022/07/23 10:50:21;;;;;;;5.40;1.40;;;;;;;;;;5097636;27;20050;-69
2022/07/23 10:53:06;;;;;;;3.13;1.45;;;;;;;;;;5085969;28;20051;-69
2022/07/23 10:55:32;;;;;;;3.35;1.50;;;;;;;;;;5090894;28;20598;-69
2022/07/23 10:57:58;;;;;;;5.50;1.67;;;;;;;;;;5084662;28;20097;-69
2022/07/23 11:00:25;;;;;;;1.95;1.00;;;;;;;;;;5097196;27;20053;-69
2022/07/23 11:03:08;;;;;;;1.83;0.88;;;;;;;;;;5088331;28;20093;-69
2022/07/23 11:05:45;;;;;;;4.72;1.38;;;;;;;;;;5093474;28;20047;-69
2022/07/23 11:08:14;;;;;;;2.72;0.90;;;;;;;;;;5085743;28;20124;-69
2022/07/23 11:10:42;;;;;;;2.10;1.08;;;;;;;;;;5087567;28;20517;-70
2022/07/23 11:13:23;;;;;;;1.27;1.08;;;;;;;;;;5088794;28;20082;-69
2022/07/23 11:16:02;;;;;;;2.28;1.25;;;;;;;;;;5084013;28;20032;-70
2022/07/23 11:18:40;;;;;;;3.70;1.25;;;;;;;;;;5083501;28;20055;-69
2022/07/23 11:21:29;;;;;;;2.40;1.23;;;;;;;;;;5087659;28;20564;-70
2022/07/23 11:24:03;;;;;;;2.10;1.27;;;;;;;;;;5084511;28;20036;-69
2022/07/23 11:26:39;;;;;;;2.50;0.85;;;;;;;;;;5086942;28;20254;-69
2022/07/23 11:29:24;;;;;;;1.58;1.00;;;;;;;;;;5104211;27;20063;-69
2022/07/23 11:32:01;;;;;;;2.90;1.10;;;;;;;;;;5087033;28;20063;-70
2022/07/23 11:34:46;;;;;;;2.15;1.02;;;;;;;;;;5082333;28;20046;-70
2022/07/23 11:37:26;;;;;;;4.28;1.15;;;;;;;;;;5068943;28;20047;-69
2022/07/23 11:39:55;;;;;;;3.05;1.20;;;;;;;;;;5080997;28;20037;-69
2022/07/23 11:42:23;;;;;;;2.05;1.27;;;;;;;;;;5085712;28;20536;-69
2022/07/23 11:44:49;;;;;;;2.60;1.20;;;;;;;;;;5086211;28;20042;-69
2022/07/23 11:47:15;;;;;;;2.95;1.20;;;;;;;;;;5068920;28;20147;-70
2022/07/23 11:49:58;;;;;;;3.92;1.08;;;;;;;;;;5101628;27;20048;-69
2022/07/23 11:52:25;;;;;;;2.35;1.20;;;;;;;;;;5100483;28;20911;-69
2022/07/23 11:54:54;;;;;;;4.50;1.40;;;;;;;;;;5086846;28;20374;-69
2022/07/23 11:57:24;;;;;;;2.80;1.63;;;;;;;;;;5082822;28;20042;-70
2022/07/23 11:59:53;;;;;;;1.63;1.00;;;;;;;;;;5084520;28;20044;-70
2022/07/23 12:02:20;;;;;;;0.88;0.82;;;;;;;;;;5085460;28;20390;-69
2022/07/23 12:04:47;;;;;;;2.17;1.30;;;;;;;;;;5083241;28;20542;-69
2022/07/23 12:07:25;;;;;;;1.65;1.20;;;;;;;;;;5088533;28;20093;-69
2022/07/23 12:09:52;;;;;;;1.63;1.15;;;;;;;;;;5085273;28;20040;-70
2022/07/23 12:12:18;;;;;;;3.22;1.55;;;;;;;;;;5086752;28;20036;-70
2022/07/23 12:14:54;;;;;;;4.05;1.50;;;;;;;;;;5084354;28;20047;-70
2022/07/23 12:17:20;;;;;;;2.45;1.48;;;;;;;;;;5101556;27;20077;-70
2022/07/23 12:19:47;;;;;;;1.75;1.20;;;;;;;;;;5082240;28;20071;-70
2022/07/23 12:22:16;;;;;;;2.53;1.38;;;;;;;;;;5068669;28;20468;-70
2022/07/23 12:24:58;;;;;;;1.60;1.27;;;;;;;;;;5066708;28;20141;-69
2022/07/23 12:27:24;;;;;;;3.33;1.27;;;;;;;;;;5087386;28;20362;-70
2022/07/23 12:29:50;;;;;;;2.00;1.10;;;;;;;;;;5083959;28;20115;-70
2022/07/23 12:32:18;;;;;;;1.33;1.05;;;;;;;;;;5086665;28;20479;-69
2022/07/23 12:34:44;;;;;;;2.22;1.40;;;;;;;;;;5083190;28;20040;-70
2022/07/23 12:37:29;;;;;;;2.15;1.45;;;;;;;;;;5097280;28;20106;-69
2022/07/23 12:39:55;;;;;;;2.88;1.30;;;;;;;;;;5084045;28;20078;-70
2022/07/23 12:42:24;;;;;;;3.90;1.13;;;;;;;;;;5085013;28;20055;-70
2022/07/23 12:45:07;;;;;;;2.45;1.67;;;;;;;;;;5084648;28;20046;-69
2022/07/23 12:47:33;;;;;;;;;;;;;;;;;;5085833;28;20059;-69
2022/07/23 12:49:59;;;;;;;2.22;1.20;;;;;;;;;;5084473;28;19924;-69
2022/07/23 12:52:25;;;;;;;5.28;1.08;;;;;;;;;;5085544;28;20119;-69
2022/07/23 12:54:52;;;;;;;1.27;0.85;;;;;;;;;;5101066;27;20044;-70
2022/07/23 12:57:19;;;;;;;4.68;1.73;;;;;;;;;;5099181;27;20047;-69
2022/07/23 12:59:45;;;;;;;1.63;1.10;;;;;;;;;;5084191;28;20094;-69
2022/07/23 13:02:11;;;;;;;2.63;1.63;;;;;;;;;;5085461;28;20388;-69
2022/07/23 13:04:37;;;;;;;1.83;1.15;;;;;;;;;;5086089;28;20092;-69
2022/07/23 13:07:03;;;;;;;2.92;1.20;;;;;;;;;;5080161;28;20044;-70
2022/07/23 13:09:30;;;;;;;2.63;1.15;;;;;;;;;;5064116;28;20417;-69
2022/07/23 13:11:57;;;;;;;1.40;1.27;;;;;;;;;;5099167;28;20477;-69
2022/07/23 13:14:24;;;;;;;3.60;1.50;;;;;;;;;;5085468;28;20100;-69
2022/07/23 13:16:51;;;;;;;3.35;1.50;;;;;;;;;;5082378;28;20446;-70
2022/07/23 13:19:18;;;;;;;4.03;2.47;;;;;;;;;;5086815;28;20082;-69
2022/07/23 13:21:44;;;;;;;2.95;1.45;;;;;;;;;;5082912;28;20040;-69
2022/07/23 13:24:12;;;;;;;3.60;1.83;;;;;;;;;;5084728;28;20040;-69
2022/07/23 13:26:38;;;;;;;2.67;1.88;;;;;;;;;;5084841;28;20102;-70
2022/07/23 13:29:04;;;;;;;2.40;1.42;;;;;;;;;;5085335;28;20039;-70
2022/07/23 13:31:31;;;;;;;4.85;1.73;;;;;;;;;;5081948;28;20108;-70
2022/07/23 13:33:57;;;;;;;3.70;2.03;;;;;;;;;;5086709;28;20097;-69
2022/07/23 13:36:23;;;;;;;3.28;1.48;;;;;;;;;;5081158;28;20076;-69
2022/07/23 13:38:49;;;;;;;2.42;1.35;;;;;;;;;;5086482;28;20123;-69
2022/07/23 13:41:16;;;;;;;3.33;1.45;;;;;;;;;;5084785;28;20760;-69
2022/07/23 13:43:42;;;;;;;4.18;1.15;;;;;;;;;;5082020;28;20036;-69
2022/07/23 13:46:09;;;;;;;3.72;1.45;;;;;;;;;;5080268;28;20392;-69
2022/07/23 13:48:35;;;;;;;3.63;1.60;;;;;;;;;;5082875;28;20062;-70
2022/07/23 13:51:01;;;;;;;4.70;1.40;;;;;;;;;;5082442;28;20455;-70
2022/07/23 13:53:27;;;;;;;3.03;1.80;;;;;;;;;;5078888;28;20681;-69
2022/07/23 13:55:54;;;;;;;4.65;1.63;;;;;;;;;;5098176;28;20089;-69
2022/07/23 13:58:20;;;;;;;3.85;1.73;;;;;;;;;;5084490;28;20040;-69
2022/07/23 14:00:48;;;;;;;1.83;1.42;;;;;;;;;;5078350;28;20093;-69
2022/07/23 14:03:14;;;;;;;2.88;1.63;;;;;;;;;;5082952;28;20036;-70
2022/07/23 14:05:41;;;;;;;2.45;1.38;;;;;;;;;;5082227;28;20028;-69
2022/07/23 14:08:08;;;;;;;2.90;1.90;;;;;;;;;;5085039;28;20134;-69
2022/07/23 14:10:34;;;;;;;1.83;1.13;;;;;;;;;;5089169;28;20044;-69
2022/07/23 14:13:01;;;;;;;2.22;1.50;;;;;;;;;;5093234;28;20043;-70
2022/07/23 14:15:28;;;;;;;2.22;1.40;;;;;;;;;;5086718;28;20036;-69
2022/07/23 14:17:55;;;;;;;6.18;2.20;;;;;;;;;;5085502;28;20570;-69
2022/07/23 14:20:21;;;;;;;2.72;1.67;;;;;;;;;;5091532;28;20043;-69
2022/07/23 14:22:49;;;;;;;4.03;1.77;;;;;;;;;;5086871;28;20047;-69
2022/07/23 14:25:15;;;;;;;4.82;2.13;;;;;;;;;;5084425;28;20052;-69
2022/07/23 14:27:41;;;;;;;2.30;1.35;;;;;;;;;;5088222;28;20048;-69
2022/07/23 14:30:09;;;;;;;2.58;1.65;;;;;;;;;;5089663;28;20103;-69
2022/07/23 14:32:36;;;;;;;3.20;1.60;;;;;;;;;;5099898;27;20474;-69
2022/07/23 14:35:03;;;;;;;3.30;2.05;;;;;;;;;;5087119;28;20465;-69
2022/07/23 14:37:29;;;;;;;3.63;1.88;;;;;;;;;;5086635;28;20215;-69
2022/07/23 14:39:55;;;;;;;3.25;1.60;;;;;;;;;;5087494;28;20147;-69
2022/07/23 14:42:21;;;;;;;2.38;1.48;;;;;;;;;;5087951;28;20416;-69
2022/07/23 14:44:47;;;;;;;3.72;1.50;;;;;;;;;;5084298;28;20390;-69
2022/07/23 14:47:14;;;;;;;5.10;1.40;;;;;;;;;;5101280;27;20048;-69